Harriman, Tennessee
Current Conditions -  °F | °C
As of 7:53 AM on Wednesday 26 Nov 2014 (Local Time) from KOQT Reporting Station
Clear Clear  
Wind Chill: 40°   Ceiling: Unl
Heat Index: 40°   Visibility: 10mi
Dew Point: 31°   Wind: 0mph
Humidity: 70%   Direction: NA
Pressure: 30.05"   Gusts: NA
Location:  35.93°N, 84.55°W
Report Text: KOQT 261253Z AUTO 00000KT 10SM CLR 04/M01 A3005 RMK AO2 SLP182 T00441006
Loading
Personal Weather Stations






























Interactive Weather Map New forecast layout! Learn more

10-Day Weather Forecast

Advertisements
Track Severe Weather on mobile